Time;durP1;ratioP1;P1;durP2;ratioP2;P2;SDS_P1;SDS_P2;PMS_P1;PMS_P2;Temp;Humidity;BMP_temperature;BMP_pressure;BME280_temperature;BME280_humidity;BME280_pressure;Samples;Min_cycle;Max_cycle;Signal;HPM_P1;HPM_P2
2021/03/08 00:00:26;;;;;;;17.75;12.13;;;1.60;97.60;;;;;;5114608;27;20193;-50
2021/03/08 00:02:54;;;;;;;15.65;11.57;;;1.70;98.20;;;;;;5115109;27;20222;-50
2021/03/08 00:05:20;;;;;;;15.50;12.38;;;1.80;98.50;;;;;;5114967;27;20183;-50
2021/03/08 00:07:46;;;;;;;14.83;11.17;;;1.60;98.30;;;;;;5121511;27;20248;-50
2021/03/08 00:10:17;;;;;;;16.02;11.50;;;1.80;97.90;;;;;;5115879;27;20202;-50
2021/03/08 00:12:45;;;;;;;16.65;12.13;;;1.70;98.10;;;;;;5133713;27;20190;-50
2021/03/08 00:15:11;;;;;;;15.80;11.50;;;1.70;98.60;;;;;;5115139;27;20191;-50
2021/03/08 00:17:37;;;;;;;15.38;11.80;;;1.50;98.30;;;;;;5115228;27;20535;-50
2021/03/08 00:20:05;;;;;;;15.47;12.40;;;1.60;98.40;;;;;;5115061;27;20175;-50
2021/03/08 00:22:31;;;;;;;16.02;12.68;;;1.50;98.20;;;;;;5114950;27;20193;-50
2021/03/08 00:24:56;;;;;;;17.17;11.70;;;1.60;98.00;;;;;;5118174;27;20273;-50
2021/03/08 00:27:22;;;;;;;14.93;11.33;;;1.70;98.10;;;;;;5114048;27;20235;-50
2021/03/08 00:29:48;;;;;;;15.20;11.60;;;1.50;97.90;;;;;;5128544;27;20180;-50
2021/03/08 00:32:13;;;;;;;16.50;11.90;;;1.60;98.00;;;;;;5114319;27;20193;-50
2021/03/08 00:34:39;;;;;;;18.60;11.63;;;1.50;98.00;;;;;;5114225;27;20179;-50
2021/03/08 00:37:05;;;;;;;14.10;11.73;;;1.70;98.20;;;;;;5114026;27;20214;-50
2021/03/08 00:39:31;;;;;;;16.25;11.05;;;1.50;98.10;;;;;;5113835;27;20289;-50
2021/03/08 00:41:57;;;;;;;16.92;13.02;;;1.60;98.10;;;;;;5115652;27;20541;-50
2021/03/08 00:44:22;;;;;;;15.50;11.77;;;1.50;98.00;;;;;;5113894;27;20189;-50
2021/03/08 00:46:48;;;;;;;15.47;12.47;;;1.30;97.90;;;;;;5113918;27;20260;-50
2021/03/08 00:49:14;;;;;;;14.87;11.47;;;1.70;98.20;;;;;;5113665;27;20666;-50
2021/03/08 00:51:39;;;;;;;16.70;11.77;;;1.40;98.30;;;;;;5132389;27;20210;-50
2021/03/08 00:54:05;;;;;;;14.37;10.97;;;1.60;98.20;;;;;;5113902;27;20579;-50
2021/03/08 00:56:31;;;;;;;15.10;11.00;;;1.40;98.10;;;;;;5113474;27;20792;-50
2021/03/08 00:58:57;;;;;;;16.90;11.77;;;1.20;98.10;;;;;;5114128;27;20213;-50
2021/03/08 01:01:23;;;;;;;16.63;11.85;;;1.30;98.30;;;;;;5113332;27;20183;-50
2021/03/08 01:03:48;;;;;;;14.60;11.63;;;1.20;97.90;;;;;;5113450;27;20187;-50
2021/03/08 01:06:14;;;;;;;14.80;10.87;;;1.20;98.30;;;;;;5113442;27;20183;-50
2021/03/08 01:08:40;;;;;;;15.17;10.80;;;1.00;98.40;;;;;;5113507;27;20183;-50
2021/03/08 01:11:06;;;;;;;13.50;10.53;;;1.30;98.40;;;;;;5113743;27;20187;-50
2021/03/08 01:13:31;;;;;;;15.07;11.37;;;1.30;98.90;;;;;;5131852;27;20562;-50
2021/03/08 01:15:57;;;;;;;14.63;11.37;;;1.20;98.80;;;;;;5121548;27;20527;-50
2021/03/08 01:18:23;;;;;;;14.13;10.53;;;1.10;98.50;;;;;;5113314;27;21057;-50
2021/03/08 01:20:48;;;;;;;13.33;10.70;;;1.20;98.20;;;;;;5113347;27;20183;-50
2021/03/08 01:23:14;;;;;;;13.10;10.23;;;1.30;98.10;;;;;;5113193;27;20190;-50
2021/03/08 01:25:40;;;;;;;12.70;9.90;;;1.00;97.90;;;;;;5113161;27;20659;-50
2021/03/08 01:28:06;;;;;;;15.53;9.97;;;1.10;97.80;;;;;;5129955;27;20828;-50
2021/03/08 01:30:36;;;;;;;14.82;10.88;;;1.30;98.00;;;;;;5110987;27;20195;-50
2021/03/08 01:33:02;;;;;;;12.18;10.57;;;1.10;97.80;;;;;;5113486;27;20215;-50
2021/03/08 01:35:28;;;;;;;15.48;10.90;;;1.30;97.70;;;;;;5113200;27;20202;-50
2021/03/08 01:37:54;;;;;;;13.75;9.32;;;1.30;98.00;;;;;;5131119;27;20739;-50
2021/03/08 01:40:22;;;;;;;14.40;10.30;;;0.60;97.70;;;;;;5112668;27;20194;-50
2021/03/08 01:42:48;;;;;;;13.27;11.20;;;1.00;98.00;;;;;;5112668;27;20275;-49
2021/03/08 01:45:16;;;;;;;13.40;10.23;;;0.80;97.70;;;;;;5112771;27;20211;-50
2021/03/08 01:47:43;;;;;;;14.75;11.50;;;0.80;98.30;;;;;;5112713;27;20703;-50
2021/03/08 01:50:28;;;;;;;15.80;11.98;;;1.10;98.50;;;;;;5130815;27;20190;-50
2021/03/08 01:52:54;;;;;;;16.75;10.73;;;0.90;98.30;;;;;;5112644;27;20663;-50
2021/03/08 01:55:21;;;;;;;14.38;11.10;;;0.90;98.20;;;;;;5130746;27;20300;-50
2021/03/08 01:57:46;;;;;;;17.15;10.90;;;1.00;98.40;;;;;;5130279;27;20195;-50
2021/03/08 02:00:13;;;;;;;15.03;10.50;;;0.70;98.80;;;;;;5111451;27;20182;-50
2021/03/08 02:02:40;;;;;;;13.25;10.18;;;0.40;98.20;;;;;;5115549;27;20797;-50
2021/03/08 02:05:09;;;;;;;15.05;10.57;;;0.70;98.60;;;;;;5131952;27;20591;-50
2021/03/08 02:07:34;;;;;;;15.35;11.27;;;1.10;98.80;;;;;;5130803;27;20199;-50
2021/03/08 02:10:00;;;;;;;12.53;10.30;;;0.80;98.50;;;;;;5112660;27;20182;-50
2021/03/08 02:12:50;;;;;;;12.70;10.37;;;1.00;99.10;;;;;;5111541;27;20802;-50
2021/03/08 02:15:27;;;;;;;12.05;9.95;;;1.00;99.70;;;;;;5125159;27;20449;-50
2021/03/08 02:18:01;;;;;;;11.43;10.20;;;0.70;99.20;;;;;;5109980;27;20241;-50
2021/03/08 02:21:04;;;;;;;15.68;11.38;;;0.90;99.70;;;;;;5109401;27;20179;-50
2021/03/08 02:23:51;;;;;;;11.68;10.10;;;0.60;99.70;;;;;;5123878;27;20269;-51
2021/03/08 02:26:47;;;;;;;13.63;11.02;;;0.60;99.30;;;;;;5112557;27;20205;-51
2021/03/08 02:29:50;;;;;;;15.18;10.77;;;0.70;98.90;;;;;;5105386;27;20644;-51
2021/03/08 02:32:23;;;;;;;12.73;10.35;;;0.60;99.10;;;;;;5111390;27;20198;-50
2021/03/08 02:35:05;;;;;;;15.38;12.23;;;0.50;99.50;;;;;;5112266;27;20640;-51
2021/03/08 02:37:56;;;;;;;14.35;10.50;;;0.80;99.90;;;;;;5111484;27;20207;-51
2021/03/08 02:40:30;;;;;;;15.40;10.63;;;0.70;99.80;;;;;;5129056;27;20195;-51
2021/03/08 02:42:58;;;;;;;16.27;10.65;;;0.60;99.60;;;;;;5111910;27;20562;-51
2021/03/08 02:45:27;;;;;;;14.73;10.57;;;0.80;99.60;;;;;;5112198;27;20198;-51
2021/03/08 02:47:54;;;;;;;14.88;10.80;;;0.70;99.90;;;;;;5111727;27;20202;-51
2021/03/08 02:50:25;;;;;;;12.57;10.00;;;0.40;99.90;;;;;;5130317;27;20194;-51
2021/03/08 02:53:02;;;;;;;12.15;9.98;;;0.60;99.90;;;;;;5112316;27;20666;-51
2021/03/08 02:55:41;;;;;;;16.13;11.13;;;1.10;99.70;;;;;;5109221;28;20187;-51
2021/03/08 02:58:11;;;;;;;15.35;10.40;;;0.80;99.70;;;;;;5129244;27;20281;-51
2021/03/08 03:00:38;;;;;;;14.70;11.10;;;0.60;99.50;;;;;;5112235;28;20210;-51
2021/03/08 03:03:06;;;;;;;14.95;10.55;;;0.70;99.10;;;;;;5111563;28;20218;-51
2021/03/08 03:05:34;;;;;;;11.60;9.73;;;0.50;98.40;;;;;;5111875;28;20183;-50
2021/03/08 03:08:03;;;;;;;13.30;10.55;;;0.60;98.70;;;;;;5130659;27;20206;-50
2021/03/08 03:10:32;;;;;;;13.65;10.55;;;0.60;98.80;;;;;;5114694;27;20187;-50
2021/03/08 03:12:59;;;;;;;11.40;9.65;;;0.50;99.40;;;;;;5115765;27;20193;-51
2021/03/08 03:15:25;;;;;;;14.10;10.50;;;0.60;99.10;;;;;;5116453;27;20202;-52
2021/03/08 03:17:54;;;;;;;14.57;9.85;;;0.60;99.00;;;;;;5115457;27;20210;-51
2021/03/08 03:20:23;;;;;;;12.35;10.35;;;0.50;98.70;;;;;;5115361;27;20179;-50
2021/03/08 03:22:52;;;;;;;16.00;11.05;;;0.50;98.50;;;;;;5115659;27;20183;-50
2021/03/08 03:25:21;;;;;;;12.35;10.00;;;0.60;98.50;;;;;;5115530;27;20179;-50
2021/03/08 03:27:49;;;;;;;13.43;10.20;;;0.60;98.50;;;;;;5115713;27;20591;-50
2021/03/08 03:30:18;;;;;;;17.40;12.00;;;0.30;98.50;;;;;;5115101;27;20217;-50
2021/03/08 03:32:46;;;;;;;13.60;10.35;;;0.20;98.90;;;;;;5113657;27;20184;-50
2021/03/08 03:35:13;;;;;;;15.40;10.50;;;0.20;99.00;;;;;;5115538;27;20179;-50
2021/03/08 03:37:41;;;;;;;12.43;9.80;;;0.20;99.00;;;;;;5115186;27;20202;-50
2021/03/08 03:40:08;;;;;;;13.57;10.57;;;0.40;98.60;;;;;;5115316;27;20275;-50
2021/03/08 03:42:35;;;;;;;14.55;11.90;;;0.20;98.70;;;;;;5110299;27;20539;-50
2021/03/08 03:45:06;;;;;;;15.32;11.35;;;0.30;99.10;;;;;;5115255;27;20179;-50
2021/03/08 03:47:34;;;;;;;16.73;10.50;;;0.00;98.90;;;;;;5114525;27;20210;-50
2021/03/08 03:50:00;;;;;;;15.73;10.82;;;0.30;99.40;;;;;;5108974;27;20179;-50
2021/03/08 03:52:25;;;;;;;15.57;11.13;;;0.00;99.60;;;;;;5127497;27;20190;-50
2021/03/08 03:54:51;;;;;;;16.30;11.47;;;0.10;99.70;;;;;;5115069;27;20187;-50
2021/03/08 03:57:17;;;;;;;13.48;10.30;;;0.30;99.60;;;;;;5132648;27;20215;-50
2021/03/08 03:59:57;;;;;;;13.63;10.97;;;0.10;99.50;;;;;;5114399;27;20598;-50
2021/03/08 04:02:31;;;;;;;16.27;11.98;;;0.00;99.60;;;;;;5114912;27;21033;-50
2021/03/08 04:05:00;;;;;;;11.90;10.40;;;0.00;99.80;;;;;;5133308;27;20190;-50
2021/03/08 04:07:27;;;;;;;11.70;9.73;;;0.30;99.90;;;;;;5117076;27;20721;-50
2021/03/08 04:09:54;;;;;;;17.00;10.40;;;0.20;99.90;;;;;;5114858;27;20666;-50
2021/03/08 04:12:31;;;;;;;15.55;10.68;;;0.50;99.80;;;;;;5114998;27;20183;-50
2021/03/08 04:15:02;;;;;;;15.40;12.18;;;0.30;99.90;;;;;;5113798;27;20588;-51
2021/03/08 04:17:29;;;;;;;24.08;11.38;;;0.00;99.90;;;;;;5114440;27;20213;-50
2021/03/08 04:19:57;;;;;;;14.43;11.05;;;0.20;99.90;;;;;;5096225;28;20588;-51
2021/03/08 04:22:26;;;;;;;14.00;10.38;;;0.10;99.90;;;;;;5114924;27;20285;-50
2021/03/08 04:24:57;;;;;;;12.00;10.80;;;-0.10;99.90;;;;;;5133179;27;20549;-51
2021/03/08 04:27:24;;;;;;;13.80;10.73;;;-0.10;99.80;;;;;;5114360;27;20200;-51
2021/03/08 04:29:51;;;;;;;15.25;10.85;;;0.00;99.90;;;;;;5114148;27;20182;-50
2021/03/08 04:32:18;;;;;;;16.75;11.07;;;0.00;99.70;;;;;;5111931;27;20208;-51
2021/03/08 04:34:45;;;;;;;12.48;9.95;;;0.00;99.90;;;;;;5114587;27;20175;-51
2021/03/08 04:37:14;;;;;;;17.38;11.00;;;-0.20;99.90;;;;;;5114428;27;20290;-50
2021/03/08 04:39:41;;;;;;;14.48;11.10;;;-0.30;99.90;;;;;;5120679;27;20215;-51
2021/03/08 04:42:07;;;;;;;16.83;11.80;;;0.00;99.90;;;;;;5115058;27;20183;-51
2021/03/08 04:44:40;;;;;;;16.13;11.20;;;-0.20;99.90;;;;;;5114282;27;20239;-51
2021/03/08 04:47:06;;;;;;;22.48;11.23;;;-0.30;99.90;;;;;;5114553;27;20221;-51
2021/03/08 04:49:33;;;;;;;18.02;12.50;;;-0.30;99.90;;;;;;5113532;27;20183;-51
2021/03/08 04:51:59;;;;;;;12.27;10.60;;;-0.30;99.90;;;;;;5113574;27;20187;-51
2021/03/08 04:54:26;;;;;;;16.45;11.40;;;-0.30;99.90;;;;;;5113910;27;20193;-51
2021/03/08 04:56:54;;;;;;;14.63;11.45;;;-0.50;99.90;;;;;;5113811;27;20684;-51
2021/03/08 04:59:20;;;;;;;13.75;10.90;;;-0.20;99.90;;;;;;5113144;27;20260;-51
2021/03/08 05:01:48;;;;;;;13.73;11.27;;;-0.20;99.90;;;;;;5113305;27;20213;-51
2021/03/08 05:04:15;;;;;;;15.23;11.43;;;-0.20;99.90;;;;;;5113162;27;20268;-51
2021/03/08 05:06:42;;;;;;;14.75;11.43;;;0.00;99.90;;;;;;5109784;27;20693;-51
2021/03/08 05:09:14;;;;;;;15.57;11.05;;;-0.30;99.90;;;;;;5100182;27;20198;-51
2021/03/08 05:11:41;;;;;;;18.35;11.40;;;-0.40;99.90;;;;;;5112263;27;20209;-51
2021/03/08 05:14:12;;;;;;;12.95;10.65;;;-0.10;99.90;;;;;;5107607;27;20197;-50
2021/03/08 05:16:43;;;;;;;15.00;11.32;;;-0.10;99.90;;;;;;5107990;27;20237;-51
2021/03/08 05:19:10;;;;;;;20.10;11.98;;;-0.30;99.90;;;;;;5111514;27;20298;-52
2021/03/08 05:21:36;;;;;;;14.10;11.23;;;-0.80;99.90;;;;;;5113204;27;20266;-51
2021/03/08 05:24:02;;;;;;;15.00;11.30;;;-0.30;99.90;;;;;;5111635;27;20288;-51
2021/03/08 05:26:29;;;;;;;13.98;10.27;;;-0.40;99.90;;;;;;5110469;27;20203;-51
2021/03/08 05:28:56;;;;;;;15.82;12.00;;;-0.30;99.90;;;;;;5101829;27;20191;-51
2021/03/08 05:31:23;;;;;;;16.60;11.10;;;-0.20;99.90;;;;;;5109690;27;20187;-50
2021/03/08 05:33:54;;;;;;;15.90;11.98;;;-0.40;99.90;;;;;;5108094;27;20240;-50
2021/03/08 05:36:20;;;;;;;13.45;11.45;;;-0.20;99.90;;;;;;5107048;27;20187;-52
2021/03/08 05:38:47;;;;;;;16.27;11.52;;;-0.60;99.90;;;;;;5122427;27;20312;-51
2021/03/08 05:41:16;;;;;;;18.65;13.07;;;-0.60;99.90;;;;;;5103733;27;20184;-51
2021/03/08 05:43:47;;;;;;;16.50;11.43;;;-0.50;99.90;;;;;;5109224;27;20171;-51
2021/03/08 05:46:24;;;;;;;14.15;11.52;;;-0.40;99.90;;;;;;5106975;27;20321;-51
2021/03/08 05:49:14;;;;;;;15.50;11.73;;;-1.20;99.90;;;;;;5126928;27;20180;-52
2021/03/08 05:52:15;;;;;;;17.33;12.50;;;-0.60;99.90;;;;;;5108395;27;20183;-50
2021/03/08 05:55:00;;;;;;;14.27;11.27;;;-0.60;99.90;;;;;;5104447;27;20188;-51
2021/03/08 05:57:45;;;;;;;16.65;11.63;;;-0.70;99.90;;;;;;5105067;27;20205;-51
2021/03/08 06:00:47;;;;;;;18.02;12.68;;;-0.60;99.90;;;;;;5109235;27;20265;-52
2021/03/08 06:03:39;;;;;;;15.95;11.95;;;-0.50;99.90;;;;;;5105292;27;20183;-53
2021/03/08 06:06:29;;;;;;;15.85;13.00;;;-0.70;99.90;;;;;;5122910;27;20185;-53
2021/03/08 06:09:26;;;;;;;16.80;11.95;;;-1.20;99.90;;;;;;5104843;27;20658;-52
2021/03/08 06:12:06;;;;;;;19.65;13.57;;;-0.60;99.90;;;;;;5107224;27;20267;-52
2021/03/08 06:14:43;;;;;;;19.60;14.32;;;-0.30;99.90;;;;;;5106968;27;20279;-52
2021/03/08 06:17:12;;;;;;;16.33;11.75;;;-0.10;99.90;;;;;;5133507;27;20239;-52
2021/03/08 06:19:39;;;;;;;15.63;12.20;;;-0.10;99.90;;;;;;5110044;27;20313;-52
2021/03/08 06:22:09;;;;;;;16.73;11.85;;;-0.70;99.90;;;;;;5130636;27;20226;-53
2021/03/08 06:24:40;;;;;;;17.67;12.90;;;-0.30;99.90;;;;;;5129166;27;20190;-52
2021/03/08 06:27:07;;;;;;;17.70;12.30;;;-0.10;99.90;;;;;;5106235;27;20198;-52
2021/03/08 06:29:34;;;;;;;16.40;12.63;;;-0.10;99.90;;;;;;5125962;27;20190;-52
2021/03/08 06:32:01;;;;;;;15.23;12.43;;;0.10;99.90;;;;;;5108351;27;20171;-52
2021/03/08 06:34:27;;;;;;;17.35;13.27;;;-0.50;99.90;;;;;;5104305;27;20183;-51
2021/03/08 06:36:53;;;;;;;19.70;12.90;;;-0.10;99.90;;;;;;5107031;27;20199;-51
2021/03/08 06:39:20;;;;;;;19.48;13.38;;;0.00;99.90;;;;;;5129304;27;20617;-50
2021/03/08 06:41:46;;;;;;;22.25;14.73;;;0.10;99.90;;;;;;5109441;27;20181;-51
2021/03/08 06:44:12;;;;;;;16.53;12.70;;;0.00;99.90;;;;;;5109473;27;20227;-51
2021/03/08 06:46:38;;;;;;;19.30;13.60;;;-0.10;99.90;;;;;;5099548;27;20234;-50
2021/03/08 06:49:04;;;;;;;21.77;14.57;;;0.30;99.90;;;;;;5129549;27;20444;-51
2021/03/08 06:51:30;;;;;;;15.38;12.75;;;0.60;99.90;;;;;;5109176;27;20289;-53
2021/03/08 06:53:57;;;;;;;17.10;13.13;;;0.30;99.90;;;;;;5109008;28;20236;-51
2021/03/08 06:56:24;;;;;;;18.77;13.95;;;0.60;99.90;;;;;;5112955;27;20244;-51
2021/03/08 06:59:13;;;;;;;17.98;13.02;;;1.20;99.90;;;;;;5126976;27;20237;-51
2021/03/08 07:01:44;;;;;;;25.55;15.50;;;0.80;99.90;;;;;;5107434;27;20344;-53
2021/03/08 07:04:11;;;;;;;20.13;14.05;;;0.60;99.90;;;;;;5106046;28;20643;-51
2021/03/08 07:06:37;;;;;;;18.33;13.90;;;0.50;99.90;;;;;;5108190;28;20234;-51
2021/03/08 07:09:13;;;;;;;18.23;13.10;;;0.60;99.90;;;;;;5127374;28;20187;-52
2021/03/08 07:11:39;;;;;;;17.73;13.80;;;0.80;99.90;;;;;;5110615;28;20277;-53
2021/03/08 07:14:19;;;;;;;25.55;14.57;;;1.00;99.90;;;;;;5105116;28;20209;-52
2021/03/08 07:16:44;;;;;;;17.05;13.95;;;1.10;99.90;;;;;;5106222;28;20198;-53
2021/03/08 07:19:10;;;;;;;18.63;14.63;;;0.60;99.90;;;;;;5109528;28;20239;-52
2021/03/08 07:21:36;;;;;;;17.65;13.80;;;0.70;99.90;;;;;;5107872;28;20183;-52
2021/03/08 07:24:15;;;;;;;19.45;13.57;;;0.90;99.90;;;;;;5110646;28;20204;-52
2021/03/08 07:26:50;;;;;;;22.40;13.85;;;1.30;99.90;;;;;;5108489;28;20203;-52
2021/03/08 07:29:17;;;;;;;18.52;13.60;;;1.00;99.90;;;;;;5111662;28;20183;-52
2021/03/08 07:31:54;;;;;;;20.30;14.73;;;1.10;99.90;;;;;;5115282;28;20179;-53
2021/03/08 07:34:21;;;;;;;18.20;13.77;;;1.60;99.90;;;;;;5110630;28;20187;-52
2021/03/08 07:36:58;;;;;;;20.60;13.52;;;1.90;99.40;;;;;;5110035;28;20319;-52
2021/03/08 07:39:25;;;;;;;15.30;13.23;;;2.70;98.60;;;;;;5110902;28;20205;-52
2021/03/08 07:42:04;;;;;;;16.27;13.45;;;3.60;96.80;;;;;;5108866;28;20171;-52
2021/03/08 07:44:31;;;;;;;18.10;13.48;;;4.30;95.00;;;;;;5103682;28;20190;-51
2021/03/08 07:46:59;;;;;;;20.35;14.88;;;4.60;93.80;;;;;;5114828;27;20252;-58
2021/03/08 07:49:33;;;;;;;17.13;13.95;;;4.70;92.10;;;;;;5110853;28;20265;-53
2021/03/08 07:52:07;;;;;;;18.08;13.80;;;4.90;91.40;;;;;;5111141;28;20179;-52
2021/03/08 07:54:55;;;;;;;18.50;14.10;;;4.90;91.70;;;;;;5108276;27;20205;-53
2021/03/08 07:57:22;;;;;;;21.73;14.93;;;5.10;91.60;;;;;;5108939;27;20290;-53
2021/03/08 07:59:52;;;;;;;19.88;16.85;;;4.80;91.40;;;;;;5112798;27;20213;-54
2021/03/08 08:02:18;;;;;;;17.02;14.63;;;5.30;91.50;;;;;;5113025;27;20285;-53
2021/03/08 08:04:43;;;;;;;20.08;14.45;;;5.20;91.10;;;;;;5124055;27;20200;-54
2021/03/08 08:07:12;;;;;;;22.00;14.53;;;4.50;91.00;;;;;;5110659;27;20230;-53
2021/03/08 08:09:42;;;;;;;23.90;14.95;;;4.30;91.80;;;;;;5128063;27;20278;-52
2021/03/08 08:12:11;;;;;;;17.85;14.50;;;4.30;92.00;;;;;;5112890;27;20647;-52
2021/03/08 08:14:39;;;;;;;17.50;14.55;;;4.30;92.40;;;;;;5108829;27;21954;-52
2021/03/08 08:17:09;;;;;;;20.27;15.07;;;4.10;92.30;;;;;;5114332;27;20267;-51
2021/03/08 08:19:38;;;;;;;18.98;15.35;;;4.10;92.60;;;;;;5112590;27;20196;-52
2021/03/08 08:22:05;;;;;;;17.42;14.50;;;3.80;92.60;;;;;;5113936;27;20186;-52
2021/03/08 08:24:31;;;;;;;15.90;13.82;;;4.10;93.50;;;;;;5112862;27;20522;-51
2021/03/08 08:26:57;;;;;;;18.20;14.75;;;4.10;93.00;;;;;;5114119;27;20715;-51
2021/03/08 08:29:24;;;;;;;18.63;14.50;;;4.20;92.80;;;;;;5111489;27;20672;-51
2021/03/08 08:32:10;;;;;;;18.85;14.73;;;4.00;92.40;;;;;;5131009;27;20273;-51
2021/03/08 08:34:38;;;;;;;23.13;14.73;;;4.10;92.60;;;;;;5109061;27;20258;-51
2021/03/08 08:37:12;;;;;;;18.45;14.70;;;4.30;92.30;;;;;;5113656;27;20261;-51
2021/03/08 08:39:39;;;;;;;17.45;14.02;;;4.20;92.20;;;;;;5112792;27;20577;-51
2021/03/08 08:42:22;;;;;;;20.52;14.68;;;4.40;92.40;;;;;;5111621;27;20861;-52
2021/03/08 08:44:52;;;;;;;17.15;13.75;;;4.60;92.10;;;;;;5128532;27;20188;-52
2021/03/08 08:47:25;;;;;;;17.77;14.20;;;4.50;92.00;;;;;;5111764;27;20215;-52
2021/03/08 08:50:10;;;;;;;20.23;16.50;;;4.60;91.90;;;;;;5110138;27;20175;-54
2021/03/08 08:52:43;;;;;;;15.82;14.05;;;4.20;91.80;;;;;;5113032;27;20667;-51
2021/03/08 08:55:09;;;;;;;14.98;12.35;;;4.50;92.30;;;;;;5130320;27;20572;-52
2021/03/08 08:57:34;;;;;;;18.63;15.40;;;4.50;91.60;;;;;;5113085;27;20239;-52
2021/03/08 09:00:16;;;;;;;16.47;14.37;;;4.70;91.10;;;;;;5111871;27;20279;-52
2021/03/08 09:02:43;;;;;;;17.40;13.75;;;4.90;91.10;;;;;;5110000;27;20661;-52
2021/03/08 09:05:28;;;;;;;17.23;14.07;;;5.10;90.90;;;;;;5111788;27;20223;-52
2021/03/08 09:08:23;;;;;;;16.23;13.30;;;5.30;90.50;;;;;;5099752;27;20216;-52
2021/03/08 09:10:49;;;;;;;21.20;16.90;;;5.30;90.10;;;;;;5110741;27;20186;-52
2021/03/08 09:13:15;;;;;;;16.70;13.67;;;5.60;89.40;;;;;;5112725;27;20233;-52
2021/03/08 09:15:41;;;;;;;19.53;15.00;;;5.60;89.40;;;;;;5111152;27;20449;-53
2021/03/08 09:18:09;;;;;;;15.93;14.17;;;6.10;87.80;;;;;;5112982;27;20203;-54
2021/03/08 09:20:35;;;;;;;16.33;13.20;;;6.50;87.00;;;;;;5109709;27;20622;-54
2021/03/08 09:23:02;;;;;;;14.50;12.87;;;6.40;85.70;;;;;;5112564;27;20262;-53
2021/03/08 09:25:29;;;;;;;15.38;13.77;;;7.50;83.80;;;;;;5111092;27;20945;-54
2021/03/08 09:27:58;;;;;;;14.95;12.30;;;8.50;78.50;;;;;;5110259;27;20432;-50
2021/03/08 09:30:28;;;;;;;14.70;12.57;;;9.10;73.80;;;;;;5108368;27;20179;-51
2021/03/08 09:33:03;;;;;;;14.68;13.10;;;9.30;71.50;;;;;;5113690;27;20736;-52
2021/03/08 09:35:32;;;;;;;16.92;14.90;;;8.70;72.80;;;;;;5110039;27;20170;-52
2021/03/08 09:38:05;;;;;;;14.30;12.90;;;8.50;75.00;;;;;;5099284;27;20217;-52
2021/03/08 09:40:33;;;;;;;13.80;12.02;;;8.50;72.40;;;;;;5129112;27;20183;-52
2021/03/08 09:42:59;;;;;;;16.52;13.02;;;8.90;72.40;;;;;;5125409;27;20179;-51
2021/03/08 09:45:33;;;;;;;15.10;13.33;;;8.90;70.10;;;;;;5114396;27;20191;-51
2021/03/08 09:48:02;;;;;;;14.93;13.32;;;9.00;70.60;;;;;;5112296;27;20201;-52
2021/03/08 09:50:31;;;;;;;13.45;12.15;;;9.00;71.20;;;;;;5109984;27;20646;-51
2021/03/08 09:52:57;;;;;;;18.73;16.40;;;8.90;71.30;;;;;;5112723;27;20180;-52
2021/03/08 09:55:26;;;;;;;15.43;13.07;;;9.20;70.60;;;;;;5110338;27;20176;-52
2021/03/08 09:57:52;;;;;;;13.38;12.07;;;9.40;70.10;;;;;;5101057;27;20569;-53
2021/03/08 10:00:28;;;;;;;14.25;12.75;;;9.80;68.10;;;;;;5106149;27;20211;-49
2021/03/08 10:03:03;;;;;;;13.88;12.05;;;9.50;67.00;;;;;;5100794;27;20232;-52
2021/03/08 10:05:49;;;;;;;15.13;13.57;;;8.40;70.20;;;;;;5110958;27;20174;-51
2021/03/08 10:08:19;;;;;;;15.88;12.13;;;9.00;68.80;;;;;;5111450;27;20207;-51
2021/03/08 10:10:53;;;;;;;14.25;12.18;;;9.80;68.00;;;;;;5128023;27;20176;-53
2021/03/08 10:13:24;;;;;;;12.82;11.50;;;10.30;64.60;;;;;;5110979;27;20550;-54
2021/03/08 10:15:57;;;;;;;14.50;12.50;;;10.50;65.50;;;;;;5104779;27;20194;-54
2021/03/08 10:18:29;;;;;;;14.63;12.82;;;9.70;65.50;;;;;;5110463;27;20585;-54
2021/03/08 10:21:00;;;;;;;13.68;12.27;;;10.00;64.80;;;;;;5115076;27;20629;-51
2021/03/08 10:23:33;;;;;;;12.32;11.05;;;10.30;65.20;;;;;;5110487;27;20540;-54
2021/03/08 10:26:13;;;;;;;15.82;12.52;;;10.40;62.40;;;;;;5110826;27;20554;-52
2021/03/08 10:28:42;;;;;;;14.02;12.52;;;10.10;63.60;;;;;;5108350;27;20794;-56
2021/03/08 10:31:20;;;;;;;15.00;11.77;;;10.00;62.40;;;;;;5117187;27;20188;-55
2021/03/08 10:34:02;;;;;;;12.95;11.68;;;9.70;64.20;;;;;;5111798;27;20181;-55
2021/03/08 10:36:33;;;;;;;14.65;11.20;;;9.90;64.50;;;;;;5115351;27;20207;-54
2021/03/08 10:39:01;;;;;;;13.90;11.85;;;9.60;63.70;;;;;;5109289;27;20200;-54
2021/03/08 10:41:28;;;;;;;11.68;10.50;;;9.20;64.40;;;;;;5110627;27;20247;-53
2021/03/08 10:43:55;;;;;;;14.32;12.82;;;9.10;65.20;;;;;;5109838;27;20171;-54
2021/03/08 10:46:21;;;;;;;12.60;11.40;;;8.30;66.30;;;;;;5102238;27;20341;-55
2021/03/08 10:48:57;;;;;;;11.20;8.68;;;8.40;67.40;;;;;;5122990;27;20209;-56
2021/03/08 10:51:23;;;;;;;11.40;9.98;;;8.70;66.10;;;;;;5103956;27;20198;-56
2021/03/08 10:54:08;;;;;;;11.97;10.80;;;8.60;66.70;;;;;;5122035;27;20190;-55
2021/03/08 10:56:36;;;;;;;11.20;10.10;;;8.30;67.30;;;;;;5107333;27;20509;-55
2021/03/08 10:59:03;;;;;;;17.38;11.23;;;8.70;66.50;;;;;;5110177;28;20200;-58
2021/03/08 11:01:30;;;;;;;12.30;10.70;;;9.60;66.80;;;;;;5110573;28;20175;-56
2021/03/08 11:03:56;;;;;;;12.55;11.25;;;9.60;65.10;;;;;;5109531;28;20191;-56
2021/03/08 11:06:23;;;;;;;11.18;9.98;;;10.20;62.50;;;;;;5110325;27;20184;-56
2021/03/08 11:08:59;;;;;;;11.43;10.07;;;9.70;61.00;;;;;;5110076;28;20289;-56
2021/03/08 11:11:42;;;;;;;10.30;9.30;;;9.70;62.40;;;;;;5129288;28;20193;-56
2021/03/08 11:14:08;;;;;;;9.70;8.80;;;11.00;59.30;;;;;;5108084;28;20205;-55
2021/03/08 11:16:35;;;;;;;9.57;8.67;;;11.30;57.50;;;;;;5101263;28;20210;-53
2021/03/08 11:19:27;;;;;;;9.07;8.18;;;10.80;56.70;;;;;;5101971;28;20208;-55
2021/03/08 11:22:10;;;;;;;9.65;8.60;;;10.90;58.40;;;;;;5102732;28;20185;-54
2021/03/08 11:24:51;;;;;;;10.02;9.15;;;11.00;55.90;;;;;;5109084;28;20603;-53
2021/03/08 11:27:24;;;;;;;10.77;9.27;;;11.60;57.00;;;;;;5110040;28;20306;-53
2021/03/08 11:30:09;;;;;;;12.25;9.45;;;10.80;56.70;;;;;;5120442;27;20188;-54
2021/03/08 11:32:38;;;;;;;11.35;10.25;;;11.20;56.20;;;;;;5129792;27;20189;-54
2021/03/08 11:35:05;;;;;;;12.30;11.00;;;11.20;55.80;;;;;;5129486;27;20294;-54
2021/03/08 11:37:31;;;;;;;10.00;9.00;;;11.50;56.60;;;;;;5127302;27;20208;-54
2021/03/08 11:40:06;;;;;;;11.63;10.00;;;11.40;56.80;;;;;;5111219;27;20667;-54
2021/03/08 11:42:33;;;;;;;11.65;10.30;;;11.80;56.10;;;;;;5109355;27;20176;-54
2021/03/08 11:44:59;;;;;;;11.48;10.27;;;11.40;55.40;;;;;;5114921;27;20186;-52
2021/03/08 11:47:24;;;;;;;11.50;10.30;;;11.00;55.40;;;;;;5111515;27;20287;-54
2021/03/08 11:49:50;;;;;;;16.23;11.00;;;10.90;55.10;;;;;;5106560;27;20184;-54
2021/03/08 11:52:16;;;;;;;16.50;10.73;;;10.50;56.60;;;;;;5109862;27;20180;-53
2021/03/08 11:54:42;;;;;;;11.40;10.20;;;9.80;57.70;;;;;;5112971;27;20524;-53
2021/03/08 11:57:09;;;;;;;13.70;11.23;;;10.20;57.90;;;;;;5113409;27;20237;-53
2021/03/08 11:59:36;;;;;;;10.63;9.60;;;10.10;58.30;;;;;;5105257;27;20208;-52
2021/03/08 12:02:02;;;;;;;11.30;10.10;;;9.90;59.70;;;;;;5129347;27;20184;-51
2021/03/08 12:04:28;;;;;;;12.40;9.23;;;10.00;58.00;;;;;;5110612;27;20169;-51
2021/03/08 12:06:54;;;;;;;14.30;10.40;;;9.80;60.20;;;;;;5112339;27;20272;-54
2021/03/08 12:09:20;;;;;;;10.47;9.33;;;9.90;59.20;;;;;;5111482;27;20218;-54
2021/03/08 12:11:46;;;;;;;11.52;10.23;;;9.60;57.90;;;;;;5131211;27;20444;-52
2021/03/08 12:14:11;;;;;;;11.27;10.13;;;10.00;55.90;;;;;;5105444;27;20660;-50
2021/03/08 12:16:37;;;;;;;14.03;10.33;;;9.60;58.60;;;;;;5112759;27;20232;-50
2021/03/08 12:19:03;;;;;;;14.60;10.27;;;9.90;58.00;;;;;;5114221;27;20206;-51
2021/03/08 12:21:30;;;;;;;11.53;9.93;;;10.00;57.10;;;;;;5113149;27;20434;-52
2021/03/08 12:23:56;;;;;;;10.55;9.55;;;9.90;56.70;;;;;;5109677;27;20233;-51
2021/03/08 12:26:22;;;;;;;10.68;9.57;;;9.80;56.70;;;;;;5108759;27;20403;-50
2021/03/08 12:28:47;;;;;;;10.47;9.13;;;9.80;57.30;;;;;;5132238;27;20720;-51
2021/03/08 12:31:13;;;;;;;11.13;9.50;;;9.80;56.40;;;;;;5110731;27;20187;-52
2021/03/08 12:33:39;;;;;;;9.98;8.98;;;9.50;55.90;;;;;;5129450;27;20671;-52
2021/03/08 12:36:06;;;;;;;10.63;9.53;;;9.80;56.60;;;;;;5111733;27;20285;-52
2021/03/08 12:38:33;;;;;;;11.60;10.18;;;10.20;55.00;;;;;;5132194;27;20218;-52
2021/03/08 12:40:59;;;;;;;10.65;9.65;;;9.70;54.80;;;;;;5111460;27;20419;-51
2021/03/08 12:43:25;;;;;;;12.87;9.73;;;9.40;54.80;;;;;;5113412;27;20560;-53
2021/03/08 12:45:50;;;;;;;10.53;9.00;;;9.60;55.30;;;;;;5111367;27;20980;-50
2021/03/08 12:48:16;;;;;;;11.00;9.70;;;9.50;55.80;;;;;;5111341;27;20729;-53
2021/03/08 12:50:42;;;;;;;11.30;10.20;;;9.20;56.80;;;;;;5109521;27;20416;-52